Time;durP1;ratioP1;P1;durP2;ratioP2;P2;SDS_P1;SDS_P2;PMS_P1;PMS_P2;Temp;Humidity;BMP_temperature;BMP_pressure;BME280_temperature;BME280_humidity;BME280_pressure;Samples;Min_cycle;Max_cycle;Signal;HPM_P1;HPM_P2
2021/12/10 00:01:57;;;;;;;75.30;36.20;;;;;;;;;;5031919;28;20041;-62
2021/12/10 00:04:29;;;;;;;66.85;34.17;;;;;;;;;;5026079;28;20077;-63
2021/12/10 00:06:56;;;;;;;68.78;34.42;;;;;;;;;;5014589;28;20046;-63
2021/12/10 00:09:25;;;;;;;61.58;33.70;;;;;;;;;;5032691;28;20346;-63
2021/12/10 00:11:53;;;;;;;62.78;34.13;;;;;;;;;;4998523;28;20094;-63
2021/12/10 00:14:25;;;;;;;65.68;32.28;;;;;;;;;;5013737;28;20061;-63
2021/12/10 00:16:51;;;;;;;71.00;33.67;;;;;;;;;;5025022;28;20048;-63
2021/12/10 00:19:32;;;;;;;66.35;35.15;;;;;;;;;;5025332;28;20033;-63
2021/12/10 00:21:59;;;;;;;77.63;36.25;;;;;;;;;;5031894;28;20037;-63
2021/12/10 00:24:29;;;;;;;75.47;32.78;;;;;;;;;;5023907;28;20057;-62
2021/12/10 00:26:56;;;;;;;70.90;33.42;;;;;;;;;;5014144;28;20107;-63
2021/12/10 00:29:23;;;;;;;60.92;32.60;;;;;;;;;;5015177;28;20120;-63
2021/12/10 00:31:53;;;;;;;59.03;33.28;;;;;;;;;;5021220;28;20053;-63
2021/12/10 00:34:29;;;;;;;61.80;31.20;;;;;;;;;;5027895;28;20049;-63
2021/12/10 00:36:56;;;;;;;64.57;34.50;;;;;;;;;;5022454;28;20599;-63
2021/12/10 00:39:25;;;;;;;61.13;32.25;;;;;;;;;;5027683;28;20042;-63
2021/12/10 00:41:52;;;;;;;63.22;31.60;;;;;;;;;;5024897;28;20110;-63
2021/12/10 00:44:19;;;;;;;67.10;31.38;;;;;;;;;;5024131;28;21348;-63
2021/12/10 00:46:45;;;;;;;63.65;32.45;;;;;;;;;;5023296;28;20081;-63
2021/12/10 00:49:11;;;;;;;69.25;34.25;;;;;;;;;;5027052;28;20088;-63
2021/12/10 00:51:38;;;;;;;61.90;29.73;;;;;;;;;;5017409;28;20034;-63
2021/12/10 00:54:05;;;;;;;59.60;32.17;;;;;;;;;;5015591;28;20430;-63
2021/12/10 00:56:32;;;;;;;63.33;31.55;;;;;;;;;;4999837;28;20053;-63
2021/12/10 00:58:58;;;;;;;66.80;33.03;;;;;;;;;;5021554;28;20505;-63
2021/12/10 01:01:26;;;;;;;59.17;33.22;;;;;;;;;;5006703;28;20053;-63
2021/12/10 01:03:55;;;;;;;68.05;33.92;;;;;;;;;;4998567;28;20049;-63
2021/12/10 01:06:22;;;;;;;53.88;29.65;;;;;;;;;;5017585;28;20120;-63
2021/12/10 01:08:49;;;;;;;65.65;31.65;;;;;;;;;;5013406;28;20042;-63
2021/12/10 01:11:24;;;;;;;58.78;29.92;;;;;;;;;;5016193;28;20045;-63
2021/12/10 01:13:53;;;;;;;64.88;30.17;;;;;;;;;;5027378;28;20128;-63
2021/12/10 01:27:00;;;;;;;49.08;25.77;;;;;;;;;;5011517;28;20089;-63
2021/12/10 01:29:30;;;;;;;44.88;24.48;;;;;;;;;;5013330;28;20478;-63
2021/12/10 01:31:56;;;;;;;52.92;25.77;;;;;;;;;;5029848;28;20044;-63
2021/12/10 01:34:23;;;;;;;54.00;27.50;;;;;;;;;;5016532;28;20039;-63
2021/12/10 01:36:49;;;;;;;61.88;28.80;;;;;;;;;;5013425;28;20187;-63
2021/12/10 01:39:18;;;;;;;50.20;27.77;;;;;;;;;;5024850;28;20045;-63
2021/12/10 01:41:53;;;;;;;48.90;26.40;;;;;;;;;;5018501;28;20501;-63
2021/12/10 01:44:27;;;;;;;54.30;27.95;;;;;;;;;;4997523;28;20049;-63
2021/12/10 01:46:54;;;;;;;55.55;28.02;;;;;;;;;;5017099;28;20042;-63
2021/12/10 01:49:20;;;;;;;51.92;28.30;;;;;;;;;;5012817;28;20049;-63
2021/12/10 01:51:47;;;;;;;52.60;27.67;;;;;;;;;;5015977;28;20037;-62
2021/12/10 01:54:19;;;;;;;50.67;27.25;;;;;;;;;;5011796;28;20045;-63
2021/12/10 01:56:46;;;;;;;57.30;28.15;;;;;;;;;;5015115;28;20041;-63
2021/12/10 01:59:14;;;;;;;43.45;26.55;;;;;;;;;;5012229;28;20084;-63
2021/12/10 02:01:43;;;;;;;51.85;26.45;;;;;;;;;;5022452;28;20121;-63
2021/12/10 02:04:11;;;;;;;53.75;26.38;;;;;;;;;;5019076;28;20046;-63
2021/12/10 02:06:37;;;;;;;50.42;24.92;;;;;;;;;;5006519;28;20409;-63
2021/12/10 02:09:04;;;;;;;57.30;23.58;;;;;;;;;;5019782;28;20088;-63
2021/12/10 02:11:31;;;;;;;46.88;24.08;;;;;;;;;;5019114;28;20045;-63
2021/12/10 02:13:57;;;;;;;46.13;23.98;;;;;;;;;;5019655;28;20042;-64
2021/12/10 02:16:23;;;;;;;40.92;21.55;;;;;;;;;;5012540;28;20046;-63
2021/12/10 02:18:50;;;;;;;48.88;23.30;;;;;;;;;;5015903;28;20042;-63
2021/12/10 02:21:18;;;;;;;45.95;22.40;;;;;;;;;;5011630;28;20046;-63
2021/12/10 02:23:50;;;;;;;48.92;21.75;;;;;;;;;;5024149;28;20041;-63
2021/12/10 02:26:17;;;;;;;44.55;21.40;;;;;;;;;;5030982;28;20524;-63
2021/12/10 02:28:43;;;;;;;39.03;19.88;;;;;;;;;;5029662;28;20050;-63
2021/12/10 02:31:12;;;;;;;34.70;19.80;;;;;;;;;;5029579;28;20436;-63
2021/12/10 02:33:39;;;;;;;42.33;20.52;;;;;;;;;;5010175;28;20088;-63
2021/12/10 02:36:10;;;;;;;42.45;19.40;;;;;;;;;;4993520;28;20409;-63
2021/12/10 02:38:37;;;;;;;40.28;19.88;;;;;;;;;;5019163;28;20104;-63
2021/12/10 02:41:03;;;;;;;35.67;18.65;;;;;;;;;;5015669;28;20064;-63
2021/12/10 02:43:29;;;;;;;36.95;18.70;;;;;;;;;;4993840;28;20042;-63
2021/12/10 02:45:56;;;;;;;37.28;18.17;;;;;;;;;;5015379;28;20497;-63
2021/12/10 02:48:23;;;;;;;43.83;21.25;;;;;;;;;;5023626;28;20136;-63
2021/12/10 02:50:50;;;;;;;48.08;19.15;;;;;;;;;;5006658;28;20041;-63
2021/12/10 02:53:23;;;;;;;37.33;19.77;;;;;;;;;;5019284;28;20045;-63
2021/12/10 02:55:49;;;;;;;33.33;18.15;;;;;;;;;;5013587;28;20449;-63
2021/12/10 02:58:15;;;;;;;32.47;18.13;;;;;;;;;;5015409;28;20038;-63
2021/12/10 03:00:48;;;;;;;38.65;18.83;;;;;;;;;;5014442;28;20064;-63
2021/12/10 03:03:14;;;;;;;32.25;16.13;;;;;;;;;;5011020;28;20042;-63
2021/12/10 03:05:41;;;;;;;32.85;16.27;;;;;;;;;;5026425;28;20046;-63
2021/12/10 03:08:07;;;;;;;34.78;16.80;;;;;;;;;;4998637;28;20090;-63
2021/12/10 03:10:33;;;;;;;33.90;16.73;;;;;;;;;;5016896;28;20117;-63
2021/12/10 03:13:00;;;;;;;35.05;16.77;;;;;;;;;;5020532;28;20460;-63
2021/12/10 03:15:29;;;;;;;39.08;17.25;;;;;;;;;;5022615;28;20050;-63
2021/12/10 03:17:56;;;;;;;40.70;17.58;;;;;;;;;;5003403;28;20037;-63
2021/12/10 03:20:24;;;;;;;30.00;16.23;;;;;;;;;;5016214;28;20078;-63
2021/12/10 03:22:50;;;;;;;36.97;17.00;;;;;;;;;;5027384;28;20042;-63
2021/12/10 03:25:17;;;;;;;38.17;19.83;;;;;;;;;;5021768;28;20092;-63
2021/12/10 03:27:43;;;;;;;34.63;17.65;;;;;;;;;;5029611;28;20037;-63
2021/12/10 03:30:11;;;;;;;36.58;19.00;;;;;;;;;;5033416;28;20125;-63
2021/12/10 03:32:38;;;;;;;30.92;17.60;;;;;;;;;;5008740;28;20103;-63
2021/12/10 03:35:09;;;;;;;35.60;16.52;;;;;;;;;;5033095;28;20076;-63
2021/12/10 03:37:36;;;;;;;32.85;15.52;;;;;;;;;;5012652;28;20462;-63
2021/12/10 03:40:03;;;;;;;33.50;17.45;;;;;;;;;;5021806;28;20164;-63
2021/12/10 03:42:29;;;;;;;28.63;15.98;;;;;;;;;;5012636;28;20045;-63
2021/12/10 03:44:55;;;;;;;29.88;15.88;;;;;;;;;;5003908;28;20512;-63
2021/12/10 03:47:22;;;;;;;36.63;16.45;;;;;;;;;;5014726;28;20052;-63
2021/12/10 03:49:49;;;;;;;29.40;15.48;;;;;;;;;;5015322;28;20466;-63
2021/12/10 03:52:15;;;;;;;30.95;17.33;;;;;;;;;;5021190;28;20040;-63
2021/12/10 03:54:42;;;;;;;32.45;16.58;;;;;;;;;;5015181;28;20050;-63
2021/12/10 03:57:09;;;;;;;32.58;17.58;;;;;;;;;;5010515;28;20041;-63
2021/12/10 03:59:36;;;;;;;31.30;17.55;;;;;;;;;;5022554;28;20060;-63
2021/12/10 04:02:03;;;;;;;39.30;18.10;;;;;;;;;;5025134;28;20053;-63
2021/12/10 04:04:31;;;;;;;37.83;18.10;;;;;;;;;;5018337;28;20205;-63
2021/12/10 04:06:59;;;;;;;35.22;18.95;;;;;;;;;;5014090;28;20049;-63
2021/12/10 04:09:25;;;;;;;35.17;18.83;;;;;;;;;;5014541;28;20059;-63
2021/12/10 04:11:53;;;;;;;27.48;17.52;;;;;;;;;;5014681;28;20038;-63
2021/12/10 04:14:20;;;;;;;32.35;18.10;;;;;;;;;;5024907;28;20081;-63
2021/12/10 04:16:53;;;;;;;38.15;18.25;;;;;;;;;;5003473;28;20045;-63
2021/12/10 04:19:20;;;;;;;37.42;17.85;;;;;;;;;;5020416;28;20052;-63
2021/12/10 04:21:46;;;;;;;31.70;18.67;;;;;;;;;;5005062;28;20508;-63
2021/12/10 04:24:14;;;;;;;30.35;16.42;;;;;;;;;;5022280;28;20042;-63
2021/12/10 04:26:40;;;;;;;32.20;17.60;;;;;;;;;;5014011;28;20045;-63
2021/12/10 04:29:06;;;;;;;26.77;16.17;;;;;;;;;;5023876;28;20481;-63
2021/12/10 04:31:33;;;;;;;30.52;15.32;;;;;;;;;;5020474;28;20042;-63
2021/12/10 04:33:59;;;;;;;29.77;15.98;;;;;;;;;;5014583;28;20088;-63
2021/12/10 04:36:25;;;;;;;27.88;14.85;;;;;;;;;;5013647;28;20042;-63
2021/12/10 04:38:52;;;;;;;30.92;15.05;;;;;;;;;;5017344;28;20100;-63
2021/12/10 04:41:18;;;;;;;33.35;16.27;;;;;;;;;;5023901;28;20041;-63
2021/12/10 04:43:45;;;;;;;26.95;15.00;;;;;;;;;;5032324;28;20139;-63
2021/12/10 04:46:11;;;;;;;33.03;14.30;;;;;;;;;;5014448;28;20049;-63
2021/12/10 04:48:47;;;;;;;34.50;15.35;;;;;;;;;;5031112;28;20128;-63
2021/12/10 04:51:14;;;;;;;31.30;15.05;;;;;;;;;;5011762;28;20127;-63
2021/12/10 04:53:40;;;;;;;32.75;15.77;;;;;;;;;;5013704;28;20045;-63
2021/12/10 04:56:06;;;;;;;30.60;15.95;;;;;;;;;;5015281;28;20041;-63
2021/12/10 04:58:32;;;;;;;31.95;15.30;;;;;;;;;;5017440;28;20096;-63
2021/12/10 05:01:00;;;;;;;34.10;15.60;;;;;;;;;;5009759;28;20071;-63
2021/12/10 05:03:27;;;;;;;33.10;15.27;;;;;;;;;;5005681;28;20141;-63
2021/12/10 05:05:59;;;;;;;34.50;15.25;;;;;;;;;;5005555;28;20049;-63
2021/12/10 05:08:26;;;;;;;33.17;15.90;;;;;;;;;;5013281;28;20175;-63
2021/12/10 05:10:52;;;;;;;29.58;15.73;;;;;;;;;;5015302;28;20041;-63
2021/12/10 05:13:18;;;;;;;31.63;17.10;;;;;;;;;;5016976;28;20038;-63
2021/12/10 05:15:44;;;;;;;27.95;15.15;;;;;;;;;;5013528;28;20054;-63
2021/12/10 05:18:13;;;;;;;30.15;15.90;;;;;;;;;;5015765;28;20041;-63
2021/12/10 05:20:41;;;;;;;30.75;15.82;;;;;;;;;;5027089;28;20373;-63
2021/12/10 05:23:07;;;;;;;31.90;16.10;;;;;;;;;;5018637;28;20045;-63
2021/12/10 05:25:34;;;;;;;27.23;15.88;;;;;;;;;;5014838;28;20124;-63
2021/12/10 05:28:00;;;;;;;34.03;15.82;;;;;;;;;;5006666;28;20052;-63
2021/12/10 05:30:28;;;;;;;28.30;14.80;;;;;;;;;;5030860;28;20104;-63
2021/12/10 05:32:54;;;;;;;27.13;15.73;;;;;;;;;;5017808;28;20148;-63
2021/12/10 05:35:20;;;;;;;33.35;15.73;;;;;;;;;;5012174;28;20085;-63
2021/12/10 05:37:47;;;;;;;27.92;15.38;;;;;;;;;;5012802;28;20458;-63
2021/12/10 05:40:14;;;;;;;29.77;15.05;;;;;;;;;;5018155;28;20473;-63
2021/12/10 05:42:41;;;;;;;28.95;15.45;;;;;;;;;;5023868;28;20046;-63
2021/12/10 05:45:07;;;;;;;30.52;16.40;;;;;;;;;;5000005;28;20053;-63
2021/12/10 05:47:34;;;;;;;28.13;15.50;;;;;;;;;;5013455;28;20056;-63
2021/12/10 05:50:00;;;;;;;28.38;15.23;;;;;;;;;;5012474;28;20192;-63
2021/12/10 05:52:26;;;;;;;33.15;17.15;;;;;;;;;;5017785;28;20049;-63
2021/12/10 05:54:53;;;;;;;32.95;16.35;;;;;;;;;;5022272;28;20037;-64
2021/12/10 05:57:19;;;;;;;31.05;17.77;;;;;;;;;;5019056;28;20092;-62
2021/12/10 05:59:45;;;;;;;30.70;17.70;;;;;;;;;;5014052;28;20048;-62
2021/12/10 06:02:12;;;;;;;34.67;18.05;;;;;;;;;;5027287;28;20128;-62
2021/12/10 06:04:38;;;;;;;33.95;18.10;;;;;;;;;;5025924;28;20085;-63
2021/12/10 06:07:05;;;;;;;39.08;19.00;;;;;;;;;;5020999;28;20585;-62
2021/12/10 06:09:31;;;;;;;35.10;19.58;;;;;;;;;;5021011;28;20050;-62
2021/12/10 06:11:57;;;;;;;32.50;20.02;;;;;;;;;;5024255;28;20034;-63
2021/12/10 06:14:24;;;;;;;39.67;22.90;;;;;;;;;;5026512;28;20052;-62
2021/12/10 06:16:52;;;;;;;38.03;20.67;;;;;;;;;;5004940;28;20049;-63
2021/12/10 06:19:19;;;;;;;37.08;21.20;;;;;;;;;;5008273;28;20052;-62
2021/12/10 06:21:45;;;;;;;42.13;21.60;;;;;;;;;;4999232;28;20042;-62
2021/12/10 06:24:12;;;;;;;38.22;21.77;;;;;;;;;;5023821;28;20386;-63
2021/12/10 06:26:38;;;;;;;39.15;21.85;;;;;;;;;;5018256;28;20366;-62
2021/12/10 06:29:05;;;;;;;36.05;22.45;;;;;;;;;;5023487;28;20063;-63
2021/12/10 06:31:32;;;;;;;41.38;22.67;;;;;;;;;;5023370;28;20123;-72
2021/12/10 06:33:58;;;;;;;43.22;25.33;;;;;;;;;;5024229;28;20056;-62
2021/12/10 06:36:25;;;;;;;38.13;21.67;;;;;;;;;;5018734;28;20123;-63
2021/12/10 06:38:52;;;;;;;35.38;23.02;;;;;;;;;;5019238;28;20060;-63
2021/12/10 06:41:18;;;;;;;40.90;24.25;;;;;;;;;;5030384;28;20124;-63
2021/12/10 06:43:44;;;;;;;38.83;22.88;;;;;;;;;;5024488;28;20119;-62
2021/12/10 06:46:11;;;;;;;41.45;24.33;;;;;;;;;;4994659;28;20401;-62
2021/12/10 06:48:37;;;;;;;37.58;22.27;;;;;;;;;;4998303;28;20034;-63
2021/12/10 06:51:09;;;;;;;37.38;22.98;;;;;;;;;;5025952;28;20070;-63
2021/12/10 06:53:36;;;;;;;42.78;23.25;;;;;;;;;;4999012;28;20053;-63
2021/12/10 06:56:04;;;;;;;43.60;23.98;;;;;;;;;;4997465;28;20112;-63
2021/12/10 06:58:32;;;;;;;39.92;23.90;;;;;;;;;;5031483;28;20055;-63
2021/12/10 07:01:00;;;;;;;41.22;23.63;;;;;;;;;;5034385;28;20052;-63
2021/12/10 07:03:27;;;;;;;39.53;24.92;;;;;;;;;;5031876;28;20068;-63
2021/12/10 07:05:55;;;;;;;45.03;24.02;;;;;;;;;;5006066;28;20041;-63
2021/12/10 07:08:23;;;;;;;43.85;24.58;;;;;;;;;;5027599;28;20162;-63
2021/12/10 07:10:49;;;;;;;37.17;23.90;;;;;;;;;;5028711;28;20060;-63
2021/12/10 07:13:16;;;;;;;40.80;23.38;;;;;;;;;;5026076;28;20504;-63
2021/12/10 07:15:44;;;;;;;38.67;23.45;;;;;;;;;;5026357;28;20041;-63
2021/12/10 07:18:10;;;;;;;45.78;23.73;;;;;;;;;;5031418;28;20084;-63
2021/12/10 07:20:38;;;;;;;37.20;21.98;;;;;;;;;;5025703;28;20068;-63
2021/12/10 07:23:04;;;;;;;38.10;21.50;;;;;;;;;;5027001;28;20034;-63
2021/12/10 07:25:30;;;;;;;38.28;22.13;;;;;;;;;;5025939;28;20072;-62
2021/12/10 07:27:57;;;;;;;37.85;20.77;;;;;;;;;;5026482;28;20041;-62
2021/12/10 07:30:26;;;;;;;33.83;21.45;;;;;;;;;;5004550;28;20366;-63
2021/12/10 07:32:52;;;;;;;38.38;21.67;;;;;;;;;;4997490;28;20122;-63
2021/12/10 07:35:19;;;;;;;39.70;20.33;;;;;;;;;;4997662;28;20081;-62
2021/12/10 07:37:45;;;;;;;31.45;19.42;;;;;;;;;;5021508;28;20049;-62
2021/12/10 07:40:14;;;;;;;29.55;18.45;;;;;;;;;;5033438;28;20130;-62
2021/12/10 07:42:40;;;;;;;35.97;18.92;;;;;;;;;;4998785;28;20161;-63
2021/12/10 07:45:07;;;;;;;35.20;19.48;;;;;;;;;;5008132;28;20033;-63
2021/12/10 07:47:36;;;;;;;32.58;18.00;;;;;;;;;;5033466;28;20413;-63
2021/12/10 07:50:05;;;;;;;30.65;18.67;;;;;;;;;;5015503;28;20481;-63
2021/12/10 07:52:34;;;;;;;27.23;17.70;;;;;;;;;;5015755;28;20124;-63
2021/12/10 07:55:02;;;;;;;30.52;17.60;;;;;;;;;;5014792;28;20049;-63
2021/12/10 07:57:29;;;;;;;25.27;17.25;;;;;;;;;;5017613;28;20037;-63
2021/12/10 07:59:56;;;;;;;29.55;16.70;;;;;;;;;;5022116;28;20038;-63
2021/12/10 08:02:22;;;;;;;28.38;17.98;;;;;;;;;;5028099;28;20034;-63
2021/12/10 08:04:48;;;;;;;28.38;15.75;;;;;;;;;;5032027;28;20117;-63
2021/12/10 08:07:14;;;;;;;32.65;16.88;;;;;;;;;;5011278;28;20076;-63
2021/12/10 08:09:41;;;;;;;27.45;16.30;;;;;;;;;;5033249;28;20041;-63
2021/12/10 08:12:07;;;;;;;23.33;15.65;;;;;;;;;;5012175;28;20547;-63
2021/12/10 08:14:34;;;;;;;24.63;15.27;;;;;;;;;;5033063;28;20120;-63
2021/12/10 08:17:00;;;;;;;30.27;15.38;;;;;;;;;;5033140;28;20120;-63
2021/12/10 08:19:26;;;;;;;26.00;13.95;;;;;;;;;;5029411;28;20398;-63
2021/12/10 08:21:53;;;;;;;26.42;14.27;;;;;;;;;;5032664;28;20103;-63
2021/12/10 08:24:19;;;;;;;24.70;13.40;;;;;;;;;;5032154;28;20049;-63
2021/12/10 08:26:45;;;;;;;23.75;13.30;;;;;;;;;;5027726;28;20491;-63
2021/12/10 08:29:11;;;;;;;25.00;14.10;;;;;;;;;;5029941;28;20469;-63
2021/12/10 08:31:38;;;;;;;22.98;12.57;;;;;;;;;;5027862;28;20053;-63
2021/12/10 08:34:05;;;;;;;20.40;13.43;;;;;;;;;;5023553;28;20038;-63
2021/12/10 08:36:33;;;;;;;18.27;12.73;;;;;;;;;;5030945;28;20517;-63
2021/12/10 08:38:59;;;;;;;22.65;12.65;;;;;;;;;;5020662;28;20145;-63
2021/12/10 08:41:28;;;;;;;20.23;11.55;;;;;;;;;;4995669;28;20050;-63
2021/12/10 08:43:56;;;;;;;20.02;11.93;;;;;;;;;;5017967;28;20042;-63
2021/12/10 08:46:23;;;;;;;17.70;11.95;;;;;;;;;;5020815;28;20117;-63
2021/12/10 08:48:49;;;;;;;21.02;12.25;;;;;;;;;;4998228;28;20088;-63
2021/12/10 08:51:20;;;;;;;19.60;11.60;;;;;;;;;;5016701;28;20044;-63
2021/12/10 08:53:47;;;;;;;20.55;11.80;;;;;;;;;;5032425;28;20514;-63
2021/12/10 08:56:13;;;;;;;20.08;11.02;;;;;;;;;;5022308;28;20112;-63
2021/12/10 08:58:39;;;;;;;18.45;10.50;;;;;;;;;;5021240;28;20396;-63
2021/12/10 09:01:08;;;;;;;19.75;11.43;;;;;;;;;;5017065;28;20128;-63
2021/12/10 09:03:35;;;;;;;23.42;11.75;;;;;;;;;;5012712;28;20125;-63
2021/12/10 09:06:02;;;;;;;19.65;10.27;;;;;;;;;;5025806;28;20058;-63
2021/12/10 09:08:28;;;;;;;17.08;9.90;;;;;;;;;;5031136;28;20048;-63
2021/12/10 09:10:54;;;;;;;19.17;10.43;;;;;;;;;;5031448;28;20098;-63
2021/12/10 09:13:21;;;;;;;17.90;10.07;;;;;;;;;;5014523;28;20076;-66
2021/12/10 09:15:51;;;;;;;16.52;9.57;;;;;;;;;;5012572;28;20033;-65
2021/12/10 09:18:17;;;;;;;17.95;10.55;;;;;;;;;;5014390;28;20168;-66
2021/12/10 09:20:46;;;;;;;18.98;10.68;;;;;;;;;;4995624;28;20159;-66
2021/12/10 09:23:14;;;;;;;16.67;10.02;;;;;;;;;;5028555;28;20444;-65
2021/12/10 09:25:41;;;;;;;20.27;11.00;;;;;;;;;;5014228;28;20501;-65
2021/12/10 09:28:08;;;;;;;26.05;10.45;;;;;;;;;;5020629;28;20041;-65
2021/12/10 09:30:36;;;;;;;16.58;10.27;;;;;;;;;;5008861;28;20053;-62
2021/12/10 09:33:03;;;;;;;15.13;9.85;;;;;;;;;;5031137;28;20087;-62
2021/12/10 09:35:31;;;;;;;18.02;10.15;;;;;;;;;;5006642;28;20064;-62
2021/12/10 09:37:58;;;;;;;19.40;10.75;;;;;;;;;;5002675;28;20050;-70
2021/12/10 09:40:28;;;;;;;20.08;10.63;;;;;;;;;;5014024;28;20050;-61
2021/12/10 09:42:55;;;;;;;23.75;9.65;;;;;;;;;;5027174;28;20052;-61
2021/12/10 09:45:23;;;;;;;16.83;10.13;;;;;;;;;;5022627;28;20045;-61
2021/12/10 09:47:50;;;;;;;18.83;9.98;;;;;;;;;;5031236;28;20109;-61
2021/12/10 09:50:17;;;;;;;16.20;8.35;;;;;;;;;;5030598;28;20037;-62
2021/12/10 09:52:44;;;;;;;16.95;9.43;;;;;;;;;;5014371;28;20072;-62
2021/12/10 09:55:11;;;;;;;16.85;9.60;;;;;;;;;;5012763;28;20441;-62
2021/12/10 09:57:40;;;;;;;18.13;10.00;;;;;;;;;;5015363;28;20116;-62
2021/12/10 10:00:10;;;;;;;18.98;9.40;;;;;;;;;;5012835;28;20041;-62
2021/12/10 10:02:36;;;;;;;16.50;8.85;;;;;;;;;;5030920;28;20087;-62
2021/12/10 10:05:04;;;;;;;17.00;8.93;;;;;;;;;;5025900;28;20100;-62
2021/12/10 10:07:30;;;;;;;15.18;8.45;;;;;;;;;;5031245;28;20175;-62
2021/12/10 10:09:58;;;;;;;24.75;9.18;;;;;;;;;;5030672;28;20041;-62
2021/12/10 10:12:28;;;;;;;18.55;9.00;;;;;;;;;;4999390;28;20460;-62
2021/12/10 10:14:54;;;;;;;16.83;8.07;;;;;;;;;;5001996;28;20053;-62
2021/12/10 10:17:22;;;;;;;16.38;8.60;;;;;;;;;;5031007;28;20049;-62
2021/12/10 10:19:49;;;;;;;14.57;8.23;;;;;;;;;;4997167;28;20053;-62
2021/12/10 10:22:17;;;;;;;15.65;8.20;;;;;;;;;;5030391;28;20122;-70
2021/12/10 10:24:44;;;;;;;14.48;8.18;;;;;;;;;;5006832;28;20049;-70
2021/12/10 10:27:12;;;;;;;17.77;8.27;;;;;;;;;;5013106;28;20503;-61
2021/12/10 10:29:39;;;;;;;15.48;7.88;;;;;;;;;;5030985;28;20050;-65
2021/12/10 10:32:10;;;;;;;14.43;8.05;;;;;;;;;;5012681;28;20536;-64
2021/12/10 10:34:39;;;;;;;17.20;7.55;;;;;;;;;;5013502;28;20404;-63
2021/12/10 10:37:06;;;;;;;12.77;6.80;;;;;;;;;;5011912;28;20046;-62
2021/12/10 10:39:34;;;;;;;12.30;7.18;;;;;;;;;;5000894;28;20492;-63
2021/12/10 10:42:02;;;;;;;16.85;7.53;;;;;;;;;;5025189;28;20045;-65
2021/12/10 10:44:28;;;;;;;15.02;8.52;;;;;;;;;;4996164;28;20069;-65
2021/12/10 10:46:56;;;;;;;18.63;6.88;;;;;;;;;;5017845;28;20373;-65
2021/12/10 10:49:39;;;;;;;17.60;7.07;;;;;;;;;;5012082;28;20034;-65
2021/12/10 10:52:12;;;;;;;10.25;5.63;;;;;;;;;;5009646;28;20067;-65
2021/12/10 10:54:38;;;;;;;16.00;6.75;;;;;;;;;;5011909;28;20394;-65
2021/12/10 10:57:12;;;;;;;14.48;6.40;;;;;;;;;;5010020;28;20110;-65
2021/12/10 10:59:39;;;;;;;13.35;6.82;;;;;;;;;;5013077;28;20128;-65
2021/12/10 11:02:08;;;;;;;11.88;6.43;;;;;;;;;;5029594;28;20533;-63
2021/12/10 11:04:38;;;;;;;11.68;6.18;;;;;;;;;;5030177;28;20164;-63
2021/12/10 11:07:09;;;;;;;10.38;6.80;;;;;;;;;;5018700;28;20516;-63
2021/12/10 11:09:36;;;;;;;14.75;6.53;;;;;;;;;;5015207;28;20116;-62
2021/12/10 11:12:05;;;;;;;13.88;6.55;;;;;;;;;;5011960;28;20065;-62
2021/12/10 11:14:33;;;;;;;13.23;6.25;;;;;;;;;;5028242;28;20154;-63
2021/12/10 11:17:08;;;;;;;11.38;6.78;;;;;;;;;;4999840;28;20046;-63
2021/12/10 11:19:35;;;;;;;11.70;5.82;;;;;;;;;;5013147;28;20405;-63
2021/12/10 11:22:03;;;;;;;14.43;6.25;;;;;;;;;;5010916;28;20038;-62
2021/12/10 11:24:34;;;;;;;11.07;5.80;;;;;;;;;;5012898;28;20050;-63
2021/12/10 11:27:04;;;;;;;11.05;5.38;;;;;;;;;;5012266;28;20050;-65
2021/12/10 11:29:40;;;;;;;16.45;6.40;;;;;;;;;;5012002;28;20059;-64
2021/12/10 11:32:09;;;;;;;13.13;5.32;;;;;;;;;;5005322;28;20081;-64
2021/12/10 11:34:40;;;;;;;11.02;5.63;;;;;;;;;;5012503;28;20047;-64
2021/12/10 11:37:09;;;;;;;9.27;5.32;;;;;;;;;;5014127;28;20192;-64
2021/12/10 11:39:42;;;;;;;13.27;5.35;;;;;;;;;;5028414;28;20405;-65
2021/12/10 11:42:27;;;;;;;11.55;4.60;;;;;;;;;;5006860;28;20401;-63
2021/12/10 11:45:15;;;;;;;11.70;4.18;;;;;;;;;;5026592;28;20458;-63
2021/12/10 11:47:50;;;;;;;8.90;4.10;;;;;;;;;;5013542;28;20057;-63
2021/12/10 11:50:20;;;;;;;11.45;5.30;;;;;;;;;;5014524;28;20045;-63
2021/12/10 11:52:59;;;;;;;11.23;4.80;;;;;;;;;;5022101;28;20096;-63
2021/12/10 11:55:26;;;;;;;9.88;4.90;;;;;;;;;;5015240;28;20403;-63
2021/12/10 11:57:52;;;;;;;11.90;6.15;;;;;;;;;;5014264;28;20403;-63
2021/12/10 12:00:22;;;;;;;10.40;4.50;;;;;;;;;;5030620;28;20050;-62
2021/12/10 12:02:51;;;;;;;10.50;4.70;;;;;;;;;;5020990;28;20076;-63
2021/12/10 12:05:19;;;;;;;11.07;4.85;;;;;;;;;;5002909;28;20037;-62
2021/12/10 12:07:48;;;;;;;15.60;5.65;;;;;;;;;;5030617;28;20041;-62
2021/12/10 12:10:20;;;;;;;11.52;4.88;;;;;;;;;;5021670;28;20046;-63
2021/12/10 12:12:54;;;;;;;13.27;5.40;;;;;;;;;;5023657;28;20053;-62
2021/12/10 12:15:23;;;;;;;11.20;4.63;;;;;;;;;;5032951;28;20099;-63
2021/12/10 12:17:52;;;;;;;10.23;4.57;;;;;;;;;;5032863;28;20267;-63
2021/12/10 12:20:26;;;;;;;10.93;4.95;;;;;;;;;;5015910;28;20464;-63
2021/12/10 12:25:41;;;;;;;8.73;4.68;;;;;;;;;;5019199;28;20433;-62
2021/12/10 12:28:11;;;;;;;12.90;4.72;;;;;;;;;;5026559;28;20049;-63
2021/12/10 12:30:51;;;;;;;10.68;4.80;;;;;;;;;;5008904;28;21866;-62
2021/12/10 12:33:17;;;;;;;11.15;5.40;;;;;;;;;;5025803;28;20038;-62
2021/12/10 12:35:43;;;;;;;10.77;5.35;;;;;;;;;;5022215;28;20049;-62
2021/12/10 12:38:15;;;;;;;14.20;5.25;;;;;;;;;;5022229;28;20045;-62
2021/12/10 12:40:42;;;;;;;11.05;4.53;;;;;;;;;;5012636;28;20400;-63
2021/12/10 12:43:09;;;;;;;12.77;6.13;;;;;;;;;;5013973;28;20397;-62
2021/12/10 12:45:36;;;;;;;11.75;5.38;;;;;;;;;;5012906;28;20121;-62
2021/12/10 12:48:08;;;;;;;13.77;5.40;;;;;;;;;;5013227;28;20133;-62
2021/12/10 12:50:34;;;;;;;9.80;4.25;;;;;;;;;;5014001;28;20072;-62
2021/12/10 12:53:02;;;;;;;8.13;4.18;;;;;;;;;;5013809;28;20048;-62
2021/12/10 12:55:31;;;;;;;11.23;5.30;;;;;;;;;;5013025;28;20065;-63
2021/12/10 12:58:04;;;;;;;11.35;5.10;;;;;;;;;;5013960;28;20125;-63
2021/12/10 13:00:50;;;;;;;10.17;4.77;;;;;;;;;;5012893;28;20054;-63
2021/12/10 13:03:21;;;;;;;9.55;4.40;;;;;;;;;;5013502;28;20301;-63
2021/12/10 13:05:49;;;;;;;9.90;4.13;;;;;;;;;;5013679;28;20045;-63
2021/12/10 13:08:19;;;;;;;10.95;3.90;;;;;;;;;;5012796;28;20541;-63
2021/12/10 13:10:52;;;;;;;7.53;3.95;;;;;;;;;;5013798;28;20452;-63
2021/12/10 13:13:30;;;;;;;13.98;4.53;;;;;;;;;;4996002;28;20053;-62
2021/12/10 13:15:56;;;;;;;8.32;4.30;;;;;;;;;;5012670;28;20073;-62
2021/12/10 13:18:24;;;;;;;10.55;4.32;;;;;;;;;;5013713;28;20107;-62
2021/12/10 13:20:53;;;;;;;10.32;3.90;;;;;;;;;;5013466;28;20068;-62
2021/12/10 13:23:22;;;;;;;7.72;4.15;;;;;;;;;;4994939;28;20103;-62
2021/12/10 13:25:50;;;;;;;7.57;3.75;;;;;;;;;;5013340;28;20053;-62
2021/12/10 13:28:16;;;;;;;14.73;4.55;;;;;;;;;;5011754;28;20089;-62
2021/12/10 13:30:47;;;;;;;11.82;4.15;;;;;;;;;;5012581;28;20405;-62
2021/12/10 13:33:15;;;;;;;8.45;4.22;;;;;;;;;;4995820;28;20053;-63
2021/12/10 13:35:41;;;;;;;12.27;3.40;;;;;;;;;;5010749;28;20049;-63
2021/12/10 13:38:07;;;;;;;10.40;4.18;;;;;;;;;;5013229;28;20466;-63
2021/12/10 13:40:35;;;;;;;16.92;6.70;;;;;;;;;;5012828;28;20042;-63
2021/12/10 13:43:04;;;;;;;14.05;5.43;;;;;;;;;;5012125;28;20108;-63
2021/12/10 13:45:32;;;;;;;10.40;4.43;;;;;;;;;;5011441;28;20140;-63
2021/12/10 13:48:03;;;;;;;7.40;3.60;;;;;;;;;;5013074;28;20038;-62
2021/12/10 13:50:32;;;;;;;7.80;3.80;;;;;;;;;;5012109;28;20041;-62
2021/12/10 13:53:00;;;;;;;7.38;3.60;;;;;;;;;;5012888;28;20129;-62
2021/12/10 13:55:28;;;;;;;9.02;4.25;;;;;;;;;;5012112;28;20042;-62
2021/12/10 13:58:13;;;;;;;9.80;4.22;;;;;;;;;;5012251;28;20367;-62
2021/12/10 14:00:42;;;;;;;8.80;3.78;;;;;;;;;;5012733;28;20084;-62
2021/12/10 14:03:09;;;;;;;12.70;4.47;;;;;;;;;;4980298;28;20111;-62
2021/12/10 14:05:39;;;;;;;9.38;4.53;;;;;;;;;;5019308;28;20085;-62
2021/12/10 14:08:10;;;;;;;13.93;5.10;;;;;;;;;;5010551;28;20045;-62
2021/12/10 14:10:40;;;;;;;9.30;4.30;;;;;;;;;;5013693;28;20191;-62
2021/12/10 14:13:09;;;;;;;14.60;5.18;;;;;;;;;;5012485;28;20056;-62
2021/12/10 14:15:48;;;;;;;27.00;5.18;;;;;;;;;;5026346;28;20052;-62
2021/12/10 14:18:20;;;;;;;12.27;5.22;;;;;;;;;;5014859;28;20137;-62
2021/12/10 14:20:50;;;;;;;10.00;4.65;;;;;;;;;;5029389;28;20132;-62
2021/12/10 14:23:19;;;;;;;11.32;5.47;;;;;;;;;;5016174;28;20038;-62
2021/12/10 14:25:52;;;;;;;12.20;4.75;;;;;;;;;;5012817;28;20096;-62
2021/12/10 14:28:21;;;;;;;9.35;5.35;;;;;;;;;;5030519;28;20412;-62
2021/12/10 14:30:49;;;;;;;10.30;4.70;;;;;;;;;;5022676;28;20512;-62
2021/12/10 14:33:27;;;;;;;10.60;5.25;;;;;;;;;;5026130;28;20033;-62
2021/12/10 14:35:59;;;;;;;10.70;4.85;;;;;;;;;;5018186;28;20409;-62
2021/12/10 14:38:32;;;;;;;15.77;5.35;;;;;;;;;;5027193;28;20065;-62
2021/12/10 14:41:00;;;;;;;11.88;5.07;;;;;;;;;;5021869;28;20405;-62